Time;durP1;ratioP1;P1;durP2;ratioP2;P2;SDS_P1;SDS_P2;PMS_P1;PMS_P2;Temp;Humidity;BMP_temperature;BMP_pressure;BME280_temperature;BME280_humidity;BME280_pressure;Samples;Min_cycle;Max_cycle;Signal;HPM_P1;HPM_P2
2021/06/10 00:02:11;;;;;;;14.17;13.17;;;;;;;;;;5051503;28;20964;-69
2021/06/10 00:04:38;;;;;;;14.50;13.30;;;;;;;;;;5051680;28;20462;-68
2021/06/10 00:07:05;;;;;;;13.63;12.63;;;;;;;;;;5050623;28;20444;-67
2021/06/10 00:09:31;;;;;;;14.23;13.23;;;;;;;;;;5051418;28;20488;-69
2021/06/10 00:11:58;;;;;;;14.63;13.47;;;;;;;;;;5051433;28;20505;-68
2021/06/10 00:14:25;;;;;;;14.97;13.63;;;;;;;;;;5051517;28;20448;-68
2021/06/10 00:16:53;;;;;;;14.80;13.60;;;;;;;;;;5050698;28;20483;-68
2021/06/10 00:19:19;;;;;;;13.93;12.83;;;;;;;;;;5050989;28;20998;-68
2021/06/10 00:21:46;;;;;;;14.40;13.20;;;;;;;;;;5051470;28;20448;-69
2021/06/10 00:24:13;;;;;;;15.70;14.50;;;;;;;;;;5051690;28;20455;-68
2021/06/10 00:26:40;;;;;;;15.00;13.80;;;;;;;;;;5050737;28;20509;-69
2021/06/10 00:29:07;;;;;;;14.10;13.00;;;;;;;;;;5051432;28;20460;-68
2021/06/10 00:31:34;;;;;;;15.70;14.50;;;;;;;;;;5051400;28;20498;-68
2021/06/10 00:34:02;;;;;;;15.90;14.47;;;;;;;;;;5051237;28;20448;-68
2021/06/10 00:36:28;;;;;;;14.10;13.10;;;;;;;;;;5050319;28;20487;-68
2021/06/10 00:38:55;;;;;;;15.70;14.13;;;;;;;;;;5051258;28;20467;-68
2021/06/10 00:41:22;;;;;;;14.50;13.30;;;;;;;;;;5051267;28;20458;-68
2021/06/10 00:43:48;;;;;;;13.97;12.80;;;;;;;;;;5051093;28;20452;-69
2021/06/10 00:46:15;;;;;;;14.53;13.43;;;;;;;;;;5050150;28;20451;-69
2021/06/10 00:48:42;;;;;;;14.33;13.07;;;;;;;;;;5050761;28;20464;-68
2021/06/10 00:51:11;;;;;;;13.63;12.53;;;;;;;;;;5050912;28;20961;-68
2021/06/10 00:53:38;;;;;;;13.63;12.53;;;;;;;;;;5051139;28;20448;-67
2021/06/10 00:56:05;;;;;;;14.30;13.10;;;;;;;;;;5050411;28;20485;-68
2021/06/10 00:58:33;;;;;;;13.93;12.57;;;;;;;;;;5050945;28;20990;-69
2021/06/10 01:01:01;;;;;;;15.43;14.23;;;;;;;;;;5051429;28;20824;-69
2021/06/10 01:03:27;;;;;;;14.43;13.33;;;;;;;;;;5054333;28;20455;-69
2021/06/10 01:05:56;;;;;;;14.70;13.47;;;;;;;;;;5053756;28;20513;-68
2021/06/10 01:08:27;;;;;;;14.40;13.40;;;;;;;;;;5054806;28;20542;-68
2021/06/10 01:11:08;;;;;;;14.63;13.53;;;;;;;;;;5054738;28;20466;-66
2021/06/10 01:13:40;;;;;;;14.27;13.27;;;;;;;;;;5055155;28;20797;-68
2021/06/10 01:16:08;;;;;;;15.20;14.10;;;;;;;;;;5053581;28;20986;-68
2021/06/10 01:18:37;;;;;;;15.83;14.73;;;;;;;;;;5054634;28;20467;-68
2021/06/10 01:21:04;;;;;;;15.40;14.23;;;;;;;;;;5054328;28;20458;-68
2021/06/10 01:23:38;;;;;;;15.77;14.53;;;;;;;;;;5054718;28;20448;-68
2021/06/10 01:26:08;;;;;;;16.70;15.50;;;;;;;;;;5053761;28;20451;-68
2021/06/10 01:28:37;;;;;;;15.50;14.40;;;;;;;;;;5054443;28;20468;-68
2021/06/10 01:31:05;;;;;;;15.80;14.70;;;;;;;;;;5052813;28;20875;-69
2021/06/10 01:33:34;;;;;;;17.27;15.80;;;;;;;;;;5053964;28;20448;-68
2021/06/10 01:36:02;;;;;;;15.00;13.90;;;;;;;;;;5053350;28;20476;-67
2021/06/10 01:38:30;;;;;;;16.67;15.37;;;;;;;;;;5054352;28;20467;-69
2021/06/10 01:40:57;;;;;;;16.67;15.47;;;;;;;;;;5054032;28;20475;-68
2021/06/10 01:43:26;;;;;;;18.07;16.77;;;;;;;;;;5054098;28;20810;-68
2021/06/10 01:45:56;;;;;;;17.30;16.00;;;;;;;;;;5052613;28;20448;-68
2021/06/10 01:48:24;;;;;;;16.33;15.03;;;;;;;;;;5054177;28;20537;-69
2021/06/10 01:50:51;;;;;;;15.97;14.47;;;;;;;;;;5054106;28;20452;-69
2021/06/10 01:53:18;;;;;;;16.70;15.30;;;;;;;;;;5053750;28;21015;-68
2021/06/10 01:55:46;;;;;;;17.60;16.00;;;;;;;;;;5052960;28;20487;-68
2021/06/10 01:58:13;;;;;;;17.27;16.00;;;;;;;;;;5053585;28;20447;-68
2021/06/10 02:00:40;;;;;;;16.27;14.97;;;;;;;;;;5053927;28;20439;-68
2021/06/10 02:03:09;;;;;;;16.90;15.60;;;;;;;;;;5053823;28;20444;-68
2021/06/10 02:05:36;;;;;;;17.60;16.33;;;;;;;;;;5053240;28;20451;-68
2021/06/10 02:08:03;;;;;;;17.27;15.97;;;;;;;;;;5053428;28;20452;-68
2021/06/10 02:10:30;;;;;;;18.47;16.97;;;;;;;;;;5053781;28;20481;-68
2021/06/10 02:12:57;;;;;;;17.87;16.57;;;;;;;;;;5052843;28;20458;-68
2021/06/10 02:15:23;;;;;;;18.03;16.63;;;;;;;;;;5053172;28;20487;-67
2021/06/10 02:17:50;;;;;;;17.70;16.30;;;;;;;;;;5053493;28;20501;-68
2021/06/10 02:20:20;;;;;;;17.63;16.33;;;;;;;;;;5053234;28;20893;-68
2021/06/10 02:22:47;;;;;;;17.53;16.33;;;;;;;;;;5053429;28;20459;-68
2021/06/10 02:25:13;;;;;;;16.13;14.83;;;;;;;;;;5053220;28;20470;-67
2021/06/10 02:27:40;;;;;;;17.03;15.83;;;;;;;;;;5052477;28;20447;-68
2021/06/10 02:30:08;;;;;;;17.23;15.83;;;;;;;;;;5053320;28;20554;-67
2021/06/10 02:32:35;;;;;;;17.23;15.63;;;;;;;;;;5053169;28;20973;-68
2021/06/10 02:35:02;;;;;;;17.40;16.00;;;;;;;;;;5052722;28;20455;-68
2021/06/10 02:37:30;;;;;;;17.90;16.60;;;;;;;;;;5052691;28;20510;-68
2021/06/10 02:39:57;;;;;;;18.97;17.67;;;;;;;;;;5053063;28;20472;-68
2021/06/10 02:42:23;;;;;;;18.40;17.00;;;;;;;;;;5052842;28;20946;-68
2021/06/10 02:44:51;;;;;;;17.17;15.80;;;;;;;;;;5053042;28;20448;-68
2021/06/10 02:47:18;;;;;;;19.00;17.70;;;;;;;;;;5051855;28;20493;-67
2021/06/10 02:49:46;;;;;;;18.33;17.13;;;;;;;;;;5052728;28;20471;-68
2021/06/10 02:52:14;;;;;;;19.10;17.70;;;;;;;;;;5052858;28;20454;-67
2021/06/10 02:54:42;;;;;;;18.53;17.13;;;;;;;;;;5052944;28;20448;-67
2021/06/10 02:57:10;;;;;;;18.63;17.13;;;;;;;;;;5051560;28;20494;-69
2021/06/10 02:59:37;;;;;;;18.00;16.70;;;;;;;;;;5052624;28;20463;-68
2021/06/10 03:02:05;;;;;;;17.90;16.63;;;;;;;;;;5052777;28;20444;-68
2021/06/10 03:04:32;;;;;;;18.80;17.30;;;;;;;;;;5052675;28;20448;-68
2021/06/10 03:06:59;;;;;;;19.53;18.00;;;;;;;;;;5051794;28;20450;-69
2021/06/10 03:09:26;;;;;;;17.47;16.17;;;;;;;;;;5052203;28;21002;-68
2021/06/10 03:11:54;;;;;;;17.53;16.33;;;;;;;;;;5052316;28;20818;-67
2021/06/10 03:14:21;;;;;;;17.50;16.40;;;;;;;;;;5052514;28;20462;-68
2021/06/10 03:16:49;;;;;;;18.03;16.73;;;;;;;;;;5051175;28;20487;-68
2021/06/10 03:19:16;;;;;;;17.70;16.40;;;;;;;;;;5052339;28;20474;-68
2021/06/10 03:21:43;;;;;;;17.83;16.63;;;;;;;;;;5052368;28;20572;-69
2021/06/10 03:24:10;;;;;;;18.93;17.47;;;;;;;;;;5051359;28;20455;-68
2021/06/10 03:26:37;;;;;;;18.53;17.23;;;;;;;;;;5051016;28;20474;-68
2021/06/10 03:29:06;;;;;;;19.27;17.87;;;;;;;;;;5051823;28;20478;-68
2021/06/10 03:31:34;;;;;;;19.37;18.00;;;;;;;;;;5052121;28;20478;-67
2021/06/10 03:34:01;;;;;;;17.77;16.50;;;;;;;;;;5052240;28;20564;-69
2021/06/10 03:36:29;;;;;;;18.87;17.60;;;;;;;;;;5051043;28;20517;-68
2021/06/10 03:38:55;;;;;;;18.87;17.50;;;;;;;;;;5052192;28;20463;-68
2021/06/10 03:41:22;;;;;;;17.50;16.17;;;;;;;;;;5051432;28;20452;-69
2021/06/10 03:43:49;;;;;;;18.87;17.57;;;;;;;;;;5051747;28;20452;-68
2021/06/10 03:46:17;;;;;;;18.67;17.20;;;;;;;;;;5051062;28;20444;-68
2021/06/10 03:48:44;;;;;;;18.00;16.60;;;;;;;;;;5051613;28;20463;-69
2021/06/10 03:51:11;;;;;;;18.23;16.93;;;;;;;;;;5051732;28;20458;-68
2021/06/10 03:53:38;;;;;;;18.20;17.00;;;;;;;;;;5051994;28;20534;-67
2021/06/10 03:56:04;;;;;;;17.97;16.77;;;;;;;;;;5050659;28;20484;-68
2021/06/10 03:58:31;;;;;;;19.77;18.27;;;;;;;;;;5051573;28;20472;-68
2021/06/10 04:00:58;;;;;;;17.93;16.50;;;;;;;;;;5051797;28;20447;-67
2021/06/10 04:03:26;;;;;;;18.20;16.97;;;;;;;;;;5051817;28;20447;-68
2021/06/10 04:05:53;;;;;;;18.90;17.50;;;;;;;;;;5050920;28;20804;-68
2021/06/10 04:08:20;;;;;;;18.00;16.70;;;;;;;;;;5051250;28;20513;-67
2021/06/10 04:10:47;;;;;;;17.63;16.50;;;;;;;;;;5058887;22;20496;-69
2021/06/10 04:13:14;;;;;;;18.97;17.67;;;;;;;;;;5035148;28;20458;-75
2021/06/10 04:15:40;;;;;;;19.23;17.70;;;;;;;;;;5037474;28;20449;-67
2021/06/10 04:18:07;;;;;;;18.00;16.87;;;;;;;;;;5032689;28;20867;-71
2021/06/10 04:20:35;;;;;;;17.50;16.13;;;;;;;;;;5032100;28;21042;-72
2021/06/10 04:23:01;;;;;;;19.23;17.40;;;;;;;;;;5031505;28;20448;-71
2021/06/10 04:25:28;;;;;;;16.40;15.10;;;;;;;;;;5030591;28;20721;-70
2021/06/10 04:27:55;;;;;;;17.17;15.97;;;;;;;;;;5031234;28;20969;-68
2021/06/10 04:30:21;;;;;;;16.20;15.20;;;;;;;;;;5031550;28;20479;-72
2021/06/10 04:32:48;;;;;;;17.27;16.10;;;;;;;;;;5031365;28;20452;-72
2021/06/10 04:35:15;;;;;;;16.20;15.20;;;;;;;;;;5031651;28;20451;-71
2021/06/10 04:37:43;;;;;;;16.20;15.10;;;;;;;;;;5035465;28;20579;-74
2021/06/10 04:40:10;;;;;;;16.20;15.03;;;;;;;;;;5034925;28;20483;-77
2021/06/10 04:42:37;;;;;;;16.70;15.60;;;;;;;;;;5035660;28;20448;-71
2021/06/10 04:45:04;;;;;;;15.90;14.90;;;;;;;;;;5035371;28;20441;-71
2021/06/10 04:47:31;;;;;;;14.70;13.80;;;;;;;;;;5034315;28;20452;-68
2021/06/10 04:49:58;;;;;;;14.57;13.63;;;;;;;;;;5035401;28;20468;-68
2021/06/10 04:52:24;;;;;;;14.73;13.70;;;;;;;;;;5035508;28;20796;-69
2021/06/10 04:54:52;;;;;;;15.40;14.30;;;;;;;;;;5034880;28;20462;-69
2021/06/10 04:57:19;;;;;;;13.73;12.83;;;;;;;;;;5034014;28;21026;-68
2021/06/10 04:59:45;;;;;;;13.90;13.00;;;;;;;;;;5035515;28;20553;-70
2021/06/10 05:02:12;;;;;;;14.70;13.60;;;;;;;;;;5034737;28;20966;-67
2021/06/10 05:04:39;;;;;;;13.70;12.60;;;;;;;;;;5035165;28;20467;-70
2021/06/10 05:07:05;;;;;;;15.17;13.87;;;;;;;;;;5033850;28;20448;-69
2021/06/10 05:09:32;;;;;;;13.43;12.57;;;;;;;;;;5034694;28;20530;-67
2021/06/10 05:12:00;;;;;;;14.43;13.40;;;;;;;;;;5035052;28;20455;-72
2021/06/10 05:14:26;;;;;;;14.03;13.13;;;;;;;;;;5035020;28;20453;-71
2021/06/10 05:16:53;;;;;;;12.50;11.50;;;;;;;;;;5034120;28;20484;-67
2021/06/10 05:19:20;;;;;;;12.83;11.93;;;;;;;;;;5034757;28;20884;-70
2021/06/10 05:21:46;;;;;;;13.37;12.27;;;;;;;;;;5034772;28;20482;-71
2021/06/10 05:24:15;;;;;;;11.80;10.90;;;;;;;;;;5034346;28;20453;-67
2021/06/10 05:26:42;;;;;;;10.07;9.37;;;;;;;;;;5034079;28;20445;-66
2021/06/10 05:29:11;;;;;;;11.40;10.50;;;;;;;;;;5034298;28;20499;-66
2021/06/10 05:31:37;;;;;;;9.77;9.07;;;;;;;;;;5034564;28;20448;-67
2021/06/10 05:34:04;;;;;;;10.73;10.00;;;;;;;;;;5034254;28;20444;-65
2021/06/10 05:36:31;;;;;;;9.37;8.67;;;;;;;;;;5033489;28;20480;-66
2021/06/10 05:38:57;;;;;;;10.13;9.23;;;;;;;;;;5034219;28;20445;-65
2021/06/10 05:41:24;;;;;;;10.60;9.80;;;;;;;;;;5034057;28;20477;-68
2021/06/10 05:43:51;;;;;;;10.37;9.57;;;;;;;;;;5034529;28;20445;-65
2021/06/10 05:46:20;;;;;;;9.47;8.80;;;;;;;;;;5033211;28;20444;-65
2021/06/10 05:48:47;;;;;;;9.80;8.93;;;;;;;;;;5033587;28;20455;-66
2021/06/10 05:51:13;;;;;;;8.67;8.03;;;;;;;;;;5033605;28;21038;-66
2021/06/10 05:53:40;;;;;;;8.57;7.90;;;;;;;;;;5033938;28;20517;-66
2021/06/10 05:56:07;;;;;;;8.63;7.93;;;;;;;;;;5033317;28;20453;-65
2021/06/10 05:58:33;;;;;;;9.90;9.10;;;;;;;;;;5033870;28;20944;-65
2021/06/10 06:01:00;;;;;;;8.20;7.60;;;;;;;;;;5033981;28;20988;-65
2021/06/10 06:03:30;;;;;;;8.80;8.10;;;;;;;;;;5033479;28;20460;-65
2021/06/10 06:05:57;;;;;;;7.70;7.00;;;;;;;;;;5033468;28;20595;-66
2021/06/10 06:08:24;;;;;;;8.40;7.60;;;;;;;;;;5034297;28;20806;-66
2021/06/10 06:10:52;;;;;;;8.60;7.90;;;;;;;;;;5033571;28;20480;-66
2021/06/10 06:13:21;;;;;;;8.13;7.43;;;;;;;;;;5033765;28;20902;-65
2021/06/10 06:15:50;;;;;;;8.07;7.40;;;;;;;;;;5032649;28;20817;-66
2021/06/10 06:18:17;;;;;;;8.53;7.40;;;;;;;;;;5033578;28;20511;-65
2021/06/10 06:20:45;;;;;;;7.97;7.23;;;;;;;;;;5033491;28;20473;-65
2021/06/10 06:23:12;;;;;;;7.53;6.33;;;;;;;;;;5033998;28;20539;-66
2021/06/10 06:25:38;;;;;;;12.70;6.70;;;;;;;;;;5033310;28;20539;-66
2021/06/10 06:28:05;;;;;;;5.87;5.30;;;;;;;;;;5033325;28;20444;-66
2021/06/10 06:30:32;;;;;;;5.27;4.87;;;;;;;;;;5033332;28;20476;-65
2021/06/10 06:32:58;;;;;;;4.40;4.00;;;;;;;;;;5034727;28;20451;-63
2021/06/10 06:35:25;;;;;;;5.10;4.70;;;;;;;;;;5033602;28;20467;-63
2021/06/10 06:37:53;;;;;;;6.53;4.93;;;;;;;;;;5034541;28;20488;-63
2021/06/10 06:40:24;;;;;;;5.03;4.53;;;;;;;;;;5034464;28;20468;-63
2021/06/10 06:42:50;;;;;;;6.60;4.57;;;;;;;;;;5034506;28;20449;-63
2021/06/10 06:45:17;;;;;;;4.73;4.30;;;;;;;;;;5033478;28;20459;-63
2021/06/10 06:47:44;;;;;;;4.70;4.30;;;;;;;;;;5034176;28;20445;-64
2021/06/10 06:50:11;;;;;;;5.07;4.57;;;;;;;;;;5034121;28;20480;-63
2021/06/10 06:52:38;;;;;;;4.37;3.97;;;;;;;;;;5034463;28;20452;-64
2021/06/10 06:55:06;;;;;;;4.23;3.83;;;;;;;;;;5034280;28;20939;-63
2021/06/10 06:57:32;;;;;;;7.50;5.20;;;;;;;;;;5033483;28;20484;-63
2021/06/10 06:59:59;;;;;;;7.33;4.50;;;;;;;;;;5034600;28;20472;-63
2021/06/10 07:02:26;;;;;;;4.93;4.30;;;;;;;;;;5034893;28;20932;-64
2021/06/10 07:04:54;;;;;;;5.27;4.00;;;;;;;;;;5033995;28;20466;-63
2021/06/10 07:07:20;;;;;;;4.07;3.70;;;;;;;;;;5034066;28;20488;-63
2021/06/10 07:09:47;;;;;;;3.83;3.53;;;;;;;;;;5033918;28;20933;-63
2021/06/10 07:12:15;;;;;;;5.13;4.60;;;;;;;;;;5033645;28;20452;-63
2021/06/10 07:14:43;;;;;;;4.50;4.10;;;;;;;;;;5034143;28;20452;-63
2021/06/10 07:17:10;;;;;;;5.70;3.60;;;;;;;;;;5033124;28;20991;-64
2021/06/10 07:19:37;;;;;;;5.13;4.03;;;;;;;;;;5034091;28;20473;-63
2021/06/10 07:22:04;;;;;;;5.00;3.80;;;;;;;;;;5034332;28;20499;-64
2021/06/10 07:24:30;;;;;;;5.00;4.30;;;;;;;;;;5034313;28;20450;-63
2021/06/10 07:26:57;;;;;;;4.27;3.77;;;;;;;;;;5034356;28;20456;-63
2021/06/10 07:29:25;;;;;;;4.33;3.83;;;;;;;;;;5039687;28;20452;-63
2021/06/10 07:31:52;;;;;;;4.10;3.50;;;;;;;;;;5051311;28;20481;-64
2021/06/10 07:34:18;;;;;;;5.10;4.60;;;;;;;;;;5051214;28;20445;-63
2021/06/10 07:36:45;;;;;;;4.57;4.00;;;;;;;;;;5047848;28;20472;-63
2021/06/10 07:39:12;;;;;;;7.13;4.30;;;;;;;;;;5048787;28;20480;-64
2021/06/10 07:41:39;;;;;;;5.57;3.90;;;;;;;;;;5040415;28;20457;-63
2021/06/10 07:44:06;;;;;;;6.13;5.00;;;;;;;;;;5050333;28;20455;-64
2021/06/10 07:46:34;;;;;;;5.00;3.80;;;;;;;;;;5047843;28;20528;-64
2021/06/10 07:49:01;;;;;;;6.20;4.00;;;;;;;;;;5036185;28;20856;-64
2021/06/10 07:51:27;;;;;;;5.47;3.80;;;;;;;;;;5035162;28;20455;-63
2021/06/10 07:53:54;;;;;;;4.97;3.83;;;;;;;;;;5034230;28;20850;-63
2021/06/10 07:56:21;;;;;;;4.27;3.87;;;;;;;;;;5034042;28;20448;-64
2021/06/10 07:58:47;;;;;;;5.33;4.20;;;;;;;;;;5034657;28;20460;-63
2021/06/10 08:01:14;;;;;;;4.67;4.27;;;;;;;;;;5034329;28;21042;-64
2021/06/10 08:03:42;;;;;;;4.50;4.13;;;;;;;;;;5035465;28;20460;-64
2021/06/10 08:06:08;;;;;;;5.07;4.57;;;;;;;;;;5035174;28;20536;-64
2021/06/10 08:08:36;;;;;;;5.30;3.97;;;;;;;;;;5037129;28;20486;-64
2021/06/10 08:11:06;;;;;;;5.33;3.97;;;;;;;;;;5047951;28;20555;-64
2021/06/10 08:13:33;;;;;;;5.67;4.10;;;;;;;;;;5052792;28;20449;-64
2021/06/10 08:16:00;;;;;;;4.50;4.10;;;;;;;;;;5051408;28;20478;-66
2021/06/10 08:18:28;;;;;;;6.57;5.97;;;;;;;;;;5046939;28;20488;-66
2021/06/10 08:20:56;;;;;;;5.47;5.07;;;;;;;;;;5043787;28;20468;-66
2021/06/10 08:23:23;;;;;;;6.07;5.50;;;;;;;;;;5043634;28;20829;-66
2021/06/10 08:25:50;;;;;;;6.60;6.10;;;;;;;;;;5043026;28;20445;-66
2021/06/10 08:28:17;;;;;;;6.10;5.57;;;;;;;;;;5040024;28;20532;-66
2021/06/10 08:30:43;;;;;;;5.23;4.73;;;;;;;;;;5031682;28;20506;-66
2021/06/10 08:33:10;;;;;;;8.93;4.40;;;;;;;;;;5031622;28;20832;-66
2021/06/10 08:35:37;;;;;;;6.33;5.00;;;;;;;;;;5030596;28;20944;-67
2021/06/10 08:38:07;;;;;;;6.93;4.70;;;;;;;;;;5031630;28;20480;-67
2021/06/10 08:40:34;;;;;;;6.40;5.90;;;;;;;;;;5032104;28;20464;-66
2021/06/10 08:43:01;;;;;;;6.53;6.03;;;;;;;;;;5031948;28;20467;-66
2021/06/10 08:45:29;;;;;;;5.30;4.90;;;;;;;;;;5030684;28;20510;-66
2021/06/10 08:47:57;;;;;;;4.60;4.23;;;;;;;;;;5030920;28;20452;-66
2021/06/10 08:50:27;;;;;;;4.57;4.27;;;;;;;;;;5031631;28;20481;-66
2021/06/10 08:52:53;;;;;;;4.90;4.50;;;;;;;;;;5031587;28;20449;-67
2021/06/10 08:55:22;;;;;;;4.80;4.30;;;;;;;;;;5030581;28;20456;-66
2021/06/10 08:57:48;;;;;;;5.93;4.70;;;;;;;;;;5030957;28;20488;-66
2021/06/10 09:00:15;;;;;;;5.83;5.03;;;;;;;;;;5030994;28;20475;-67
2021/06/10 09:02:50;;;;;;;7.67;5.40;;;;;;;;;;5030983;28;20475;-66
2021/06/10 09:05:19;;;;;;;6.07;5.57;;;;;;;;;;5030608;28;20919;-67
2021/06/10 09:07:51;;;;;;;5.20;4.73;;;;;;;;;;5030907;28;20459;-66
2021/06/10 09:10:21;;;;;;;4.77;4.30;;;;;;;;;;5030972;28;20995;-67
2021/06/10 09:12:52;;;;;;;7.13;6.53;;;;;;;;;;5031187;28;20455;-66
2021/06/10 09:15:20;;;;;;;5.90;5.10;;;;;;;;;;5030409;28;20518;-66
2021/06/10 09:17:48;;;;;;;8.40;7.80;;;;;;;;;;5030715;28;20491;-66
2021/06/10 09:20:31;;;;;;;7.70;7.00;;;;;;;;;;5031281;28;20500;-66
2021/06/10 09:23:15;;;;;;;9.23;8.27;;;;;;;;;;5032548;28;20445;-67
2021/06/10 09:25:43;;;;;;;7.23;6.73;;;;;;;;;;5034155;28;20478;-67
2021/06/10 09:28:11;;;;;;;7.57;6.70;;;;;;;;;;5034579;28;20438;-66
2021/06/10 09:30:40;;;;;;;7.67;7.07;;;;;;;;;;5034907;28;20901;-66
2021/06/10 09:33:10;;;;;;;7.57;6.17;;;;;;;;;;5034483;28;20453;-66
2021/06/10 09:35:38;;;;;;;5.53;5.03;;;;;;;;;;5033764;28;20462;-67
2021/06/10 09:38:06;;;;;;;6.50;6.00;;;;;;;;;;5034921;28;20490;-67
2021/06/10 09:40:32;;;;;;;7.63;7.03;;;;;;;;;;5036083;28;20472;-67
2021/06/10 09:43:00;;;;;;;7.70;7.10;;;;;;;;;;5036530;28;20501;-67
2021/06/10 09:45:28;;;;;;;7.90;7.20;;;;;;;;;;5033731;28;20448;-67
2021/06/10 09:47:56;;;;;;;6.80;6.30;;;;;;;;;;5034023;28;20966;-66
2021/06/10 09:50:23;;;;;;;7.13;6.53;;;;;;;;;;5034171;28;20481;-66
2021/06/10 09:52:51;;;;;;;7.13;6.47;;;;;;;;;;5034195;28;20551;-67
2021/06/10 09:55:30;;;;;;;9.30;6.20;;;;;;;;;;5033948;28;20539;-66
2021/06/10 09:57:56;;;;;;;7.73;7.13;;;;;;;;;;5033786;28;20860;-66
2021/06/10 10:00:27;;;;;;;8.63;7.83;;;;;;;;;;5034225;28;20473;-66
2021/06/10 10:02:55;;;;;;;8.20;7.60;;;;;;;;;;5034895;28;20448;-67
2021/06/10 10:05:23;;;;;;;8.50;7.70;;;;;;;;;;5042569;28;20452;-66
2021/06/10 10:07:50;;;;;;;7.80;7.20;;;;;;;;;;5047577;28;20445;-67
2021/06/10 10:10:17;;;;;;;8.67;7.97;;;;;;;;;;5042050;28;20512;-66
2021/06/10 10:12:45;;;;;;;7.37;6.70;;;;;;;;;;5034667;28;20452;-66
2021/06/10 10:15:12;;;;;;;9.40;8.70;;;;;;;;;;5033843;28;20457;-66
2021/06/10 10:17:39;;;;;;;10.60;9.80;;;;;;;;;;5032862;28;21064;-67
2021/06/10 10:20:09;;;;;;;8.57;7.33;;;;;;;;;;5033626;28;20468;-66
2021/06/10 10:22:36;;;;;;;9.37;8.73;;;;;;;;;;5033821;28;20445;-66
2021/06/10 10:25:03;;;;;;;10.40;9.70;;;;;;;;;;5033904;28;20870;-65
2021/06/10 10:27:30;;;;;;;8.83;8.13;;;;;;;;;;5032709;28;20531;-66
2021/06/10 10:29:57;;;;;;;10.50;9.70;;;;;;;;;;5033351;28;20464;-65
2021/06/10 10:32:25;;;;;;;10.10;9.20;;;;;;;;;;5033483;28;20448;-65
2021/06/10 10:34:52;;;;;;;9.40;8.60;;;;;;;;;;5033326;28;20457;-66
2021/06/10 10:37:22;;;;;;;9.90;9.10;;;;;;;;;;5032643;28;20844;-65
2021/06/10 10:39:49;;;;;;;9.90;9.10;;;;;;;;;;5033382;28;20475;-66
2021/06/10 10:42:26;;;;;;;10.60;9.73;;;;;;;;;;5033599;28;20506;-66
2021/06/10 10:44:55;;;;;;;10.30;9.50;;;;;;;;;;5033022;28;20460;-66
2021/06/10 10:47:22;;;;;;;8.67;7.80;;;;;;;;;;5032541;28;20449;-66
2021/06/10 10:49:51;;;;;;;8.93;8.13;;;;;;;;;;5033129;28;20530;-66
2021/06/10 10:52:33;;;;;;;8.30;7.60;;;;;;;;;;5033061;28;20453;-66
2021/06/10 10:55:14;;;;;;;7.67;7.03;;;;;;;;;;5032695;28;20469;-66
2021/06/10 10:57:41;;;;;;;9.50;8.30;;;;;;;;;;5032741;28;20480;-67
2021/06/10 11:00:09;;;;;;;7.57;6.93;;;;;;;;;;5032953;28;20464;-66
2021/06/10 11:02:40;;;;;;;7.67;7.07;;;;;;;;;;5033078;28;20455;-66
2021/06/10 11:05:09;;;;;;;7.40;6.70;;;;;;;;;;5033198;28;20433;-66
2021/06/10 11:07:56;;;;;;;10.03;7.57;;;;;;;;;;5034052;28;20444;-66
2021/06/10 11:10:49;;;;;;;8.17;7.57;;;;;;;;;;5032308;28;20857;-65
2021/06/10 11:13:16;;;;;;;9.67;8.97;;;;;;;;;;5032825;28;20632;-66
2021/06/10 11:15:49;;;;;;;9.63;8.93;;;;;;;;;;5031422;28;20862;-66
2021/06/10 11:18:31;;;;;;;8.80;8.00;;;;;;;;;;5032402;28;20480;-66
2021/06/10 11:20:57;;;;;;;11.70;9.53;;;;;;;;;;5032328;28;20464;-65
2021/06/10 11:23:26;;;;;;;8.57;7.87;;;;;;;;;;5032463;28;20440;-66
2021/06/10 11:25:53;;;;;;;9.07;8.20;;;;;;;;;;5031488;28;20511;-66
2021/06/10 11:28:21;;;;;;;8.43;7.60;;;;;;;;;;5032415;28;20449;-67
2021/06/10 11:30:48;;;;;;;7.43;6.80;;;;;;;;;;5032235;28;20460;-66
2021/06/10 11:33:23;;;;;;;7.43;6.93;;;;;;;;;;5032536;28;20452;-66
2021/06/10 11:35:53;;;;;;;6.10;5.60;;;;;;;;;;5031268;28;21141;-66
2021/06/10 11:38:22;;;;;;;11.33;6.20;;;;;;;;;;5032175;28;20583;-66
2021/06/10 11:40:51;;;;;;;6.00;5.50;;;;;;;;;;5032028;28;20479;-66
2021/06/10 11:43:18;;;;;;;6.80;6.20;;;;;;;;;;5032530;28;20448;-66
2021/06/10 11:45:46;;;;;;;6.40;5.90;;;;;;;;;;5031090;28;20444;-67
2021/06/10 11:48:12;;;;;;;5.87;5.27;;;;;;;;;;5031874;28;20858;-65
2021/06/10 11:50:40;;;;;;;6.90;6.20;;;;;;;;;;5032032;28;20525;-66
2021/06/10 11:53:08;;;;;;;6.10;5.60;;;;;;;;;;5031892;28;20444;-66
2021/06/10 11:55:36;;;;;;;6.10;5.37;;;;;;;;;;5031022;28;20452;-66
2021/06/10 11:58:05;;;;;;;7.07;6.40;;;;;;;;;;5031926;28;20488;-66
2021/06/10 12:00:33;;;;;;;6.93;6.20;;;;;;;;;;5031787;28;20480;-66
2021/06/10 12:03:00;;;;;;;6.60;6.10;;;;;;;;;;5031634;28;20455;-66
2021/06/10 12:05:27;;;;;;;6.80;6.20;;;;;;;;;;5031438;28;20791;-66
2021/06/10 12:08:10;;;;;;;6.80;6.30;;;;;;;;;;5031458;28;20536;-65
2021/06/10 12:10:36;;;;;;;4.90;4.50;;;;;;;;;;5031673;28;21072;-66
2021/06/10 12:13:05;;;;;;;7.23;6.63;;;;;;;;;;5031802;28;20444;-66
2021/06/10 12:15:34;;;;;;;4.93;4.50;;;;;;;;;;5031464;28;20448;-67
2021/06/10 12:18:02;;;;;;;6.03;5.53;;;;;;;;;;5031408;28;20991;-66
2021/06/10 12:20:29;;;;;;;8.30;7.70;;;;;;;;;;5031561;28;20479;-65
2021/06/10 12:22:56;;;;;;;7.87;7.20;;;;;;;;;;5031519;28;20451;-65
2021/06/10 12:25:25;;;;;;;5.87;5.47;;;;;;;;;;5031399;28;20440;-66
2021/06/10 12:27:52;;;;;;;6.30;5.80;;;;;;;;;;5031345;28;20444;-67
2021/06/10 12:30:27;;;;;;;5.93;5.43;;;;;;;;;;5031765;28;20832;-66
2021/06/10 12:32:54;;;;;;;6.90;6.30;;;;;;;;;;5031089;28;20428;-67
2021/06/10 12:35:21;;;;;;;7.80;6.20;;;;;;;;;;5031147;28;20468;-66
2021/06/10 12:37:52;;;;;;;5.50;5.10;;;;;;;;;;5031180;28;20506;-66
2021/06/10 12:40:18;;;;;;;7.27;6.67;;;;;;;;;;5031903;28;20468;-66
2021/06/10 12:43:04;;;;;;;5.13;4.73;;;;;;;;;;5031465;28;20444;-66
2021/06/10 12:45:32;;;;;;;7.03;6.50;;;;;;;;;;5030796;28;20525;-66
2021/06/10 12:47:58;;;;;;;7.03;6.43;;;;;;;;;;5031215;28;20502;-66
2021/06/10 12:50:25;;;;;;;7.10;6.50;;;;;;;;;;5031451;28;20491;-66
2021/06/10 12:52:52;;;;;;;7.10;6.60;;;;;;;;;;5031157;28;20998;-66
2021/06/10 12:55:26;;;;;;;6.63;6.00;;;;;;;;;;5030805;28;20448;-67
2021/06/10 12:57:56;;;;;;;7.53;6.83;;;;;;;;;;5034321;28;20464;-66
2021/06/10 13:00:30;;;;;;;7.20;6.70;;;;;;;;;;5035163;28;20487;-66
2021/06/10 13:03:04;;;;;;;11.40;8.40;;;;;;;;;;5035368;28;20460;-65
2021/06/10 13:05:30;;;;;;;7.13;6.53;;;;;;;;;;5034735;28;20429;-66
2021/06/10 13:07:58;;;;;;;6.97;6.40;;;;;;;;;;5035467;28;20443;-66
2021/06/10 13:10:41;;;;;;;7.53;6.90;;;;;;;;;;5034326;28;21011;-66
2021/06/10 13:13:09;;;;;;;6.90;6.30;;;;;;;;;;5035050;28;20458;-66
2021/06/10 13:15:36;;;;;;;6.80;6.20;;;;;;;;;;5034246;28;20448;-66
2021/06/10 13:18:12;;;;;;;5.97;5.53;;;;;;;;;;5034587;28;20492;-66
2021/06/10 13:21:00;;;;;;;7.00;6.30;;;;;;;;;;5035202;28;20475;-66
2021/06/10 13:23:45;;;;;;;7.90;7.30;;;;;;;;;;5031724;28;20518;-65
2021/06/10 13:26:15;;;;;;;7.90;7.30;;;;;;;;;;5033877;28;20448;-66
2021/06/10 13:28:42;;;;;;;10.97;7.93;;;;;;;;;;5034779;28;20451;-66
2021/06/10 13:31:17;;;;;;;6.73;6.23;;;;;;;;;;5034851;28;20468;-65
2021/06/10 13:33:47;;;;;;;9.13;8.33;;;;;;;;;;5034646;28;20432;-66
2021/06/10 13:36:16;;;;;;;8.37;7.77;;;;;;;;;;5034222;28;20429;-66
2021/06/10 13:38:43;;;;;;;8.47;7.73;;;;;;;;;;5035151;28;20488;-66
2021/06/10 13:41:12;;;;;;;6.63;5.90;;;;;;;;;;5034000;28;20468;-66
2021/06/10 13:43:39;;;;;;;6.30;5.47;;;;;;;;;;5034632;28;20452;-66
2021/06/10 13:46:06;;;;;;;7.80;7.10;;;;;;;;;;5033327;28;20506;-66
2021/06/10 13:48:33;;;;;;;7.70;7.10;;;;;;;;;;5034401;28;20539;-66
2021/06/10 13:51:01;;;;;;;6.83;6.10;;;;;;;;;;5034441;28;20465;-66
2021/06/10 13:53:28;;;;;;;8.70;8.10;;;;;;;;;;5034985;28;20480;-67
2021/06/10 13:55:55;;;;;;;10.90;10.10;;;;;;;;;;5034928;28;20514;-66
2021/06/10 13:58:22;;;;;;;7.23;6.73;;;;;;;;;;5035349;28;20534;-66
2021/06/10 14:00:48;;;;;;;10.60;9.80;;;;;;;;;;5035549;28;20475;-66
2021/06/10 14:03:16;;;;;;;10.30;9.60;;;;;;;;;;5036247;28;20448;-65
2021/06/10 14:05:42;;;;;;;8.70;8.10;;;;;;;;;;5038245;28;20543;-66
2021/06/10 14:08:10;;;;;;;9.63;8.80;;;;;;;;;;5039075;28;20936;-66
2021/06/10 14:10:37;;;;;;;9.80;8.93;;;;;;;;;;5036100;28;20479;-65
2021/06/10 14:13:04;;;;;;;10.10;9.20;;;;;;;;;;5034019;28;20574;-66
2021/06/10 14:15:30;;;;;;;9.73;8.77;;;;;;;;;;5033626;28;20457;-66
2021/06/10 14:17:57;;;;;;;10.10;9.40;;;;;;;;;;5033832;28;20487;-66
2021/06/10 14:20:24;;;;;;;8.93;8.13;;;;;;;;;;5033708;28;20468;-65
2021/06/10 14:22:50;;;;;;;7.90;7.17;;;;;;;;;;5033829;28;20453;-66
2021/06/10 14:25:18;;;;;;;8.70;8.00;;;;;;;;;;5032712;28;20811;-66
2021/06/10 14:27:45;;;;;;;10.00;9.00;;;;;;;;;;5033380;28;20456;-66
2021/06/10 14:30:26;;;;;;;7.23;6.63;;;;;;;;;;5033864;28;20465;-66
2021/06/10 14:32:53;;;;;;;7.70;7.10;;;;;;;;;;5033620;28;20857;-66
2021/06/10 14:35:20;;;;;;;7.10;6.50;;;;;;;;;;5033118;28;20571;-67
2021/06/10 14:37:47;;;;;;;8.60;7.97;;;;;;;;;;5033405;28;20563;-66
2021/06/10 14:40:14;;;;;;;8.17;7.57;;;;;;;;;;5033340;28;20475;-66